Track Сазыкин Герман

Time Latitude Longitude Accuracy (66% radius in meters) Altitude (meters) Speed (km/hour) Bearing (degrees) Battery (%) GPS flag
10:27:38 60.370963 29.556412 12 74.536586087466 0.65624648332596 90.589294433594 82 1 delete
10:27:26 60.370913 29.556434 8 76.278834009093 0.96776449680328 173.97842407227 82 1 delete
10:27:14 60.370931 29.556454 6 77.041813945242 0.23786762356758 279.30361938477 82 1 delete
10:27:02 60.370930 29.556509 6 77.593504994393 0.89727610349655 165.83786010742 82 1 delete
10:26:53 60.370928 29.556561 8 77.834467757597 0.0042251572012901 355.84671020508 82 1 delete
10:26:50 60.370928 29.556561 8 77.988227550907 0.40426331758499 355.84671020508 82 1 delete
10:26:41 60.370925 29.556575 16 78.555128863079 0 355.84671020508 82 1 delete
10:26:32 60.370892 29.556622 12 78.343912054598 1.3630741834641 302.6501159668 82 1 delete
10:26:29 60.370870 29.556668 8 78.13850843491 1.3668986558914 314.23635864258 82 1 delete
10:26:26 60.370849 29.556676 8 78.232100588728 1.6366975307465 329.6953125 82 1 delete
10:26:23 60.370773 29.556709 6 78.461223911894 1.0298607349396 336.96646118164 82 1 delete
10:26:20 60.370724 29.556738 8 78.763954498416 0.67198449373245 301.03570556641 82 1 delete
10:26:08 60.370713 29.556761 8 80.711482669805 0.047732301056385 356.15386962891 82 1 delete
10:25:56 60.370674 29.556889 12 81.972744866654 0 309.88827514648 82 1 delete
10:25:53 60.370654 29.556975 8 82.081002500083 5.4987301826477 310.2673034668 82 1 delete
10:25:50 60.370649 29.557124 12 84.420484208972 5.7880721092224 259.20831298828 82 1 delete
10:25:47 60.370693 29.557333 8 85.516481745319 6.0511283874512 209.7425994873 82 1 delete
10:25:44 60.370838 29.557330 8 86.009118527107 6.0874156951904 151.74479675293 82 1 delete
10:25:41 60.370997 29.557056 12 83.686572645526 5.8854451179504 140.41793823242 82 1 delete
10:25:38 60.371170 29.556899 8 82.218663363455 5.5741105079651 186.84986877441 82 1 delete
10:25:35 60.371375 29.557012 8 83.050031660513 5.2129974365234 201.66928100586 82 1 delete
10:25:32 60.371545 29.557212 8 83.787276088303 4.9296083450317 220.1904296875 82 1 delete
10:25:29 60.371640 29.557520 8 83.124203899983 4.7842235565186 243.34690856934 82 1 delete
10:25:26 60.371725 29.557885 8 82.992373132647 4.5255904197693 247.33737182617 82 1 delete
10:25:23 60.371785 29.558170 8 83.105440480784 4.7344961166382 242.98892211914 82 1 delete
10:25:20 60.371825 29.558349 8 83.348395638857 0 228.33573913574 82 1 delete
10:25:17 60.371852 29.558525 6 83.63041305372 6.1081337928772 247.95161437988 82 1 delete
10:25:14 60.371913 29.558883 8 84.138604377772 6.2658557891846 249.45268249512 82 1 delete
10:25:11 60.371975 29.559262 6 87.233969836894 6.1907896995544 245.19105529785 82 1 delete
10:25:08 60.372035 29.559570 6 90.978411393968 6.10045337677 245.35554504395 82 1 delete
10:25:05 60.372098 29.559959 6 95.025293095024 5.8168435096741 250.92881774902 82 1 delete
10:25:02 60.372145 29.560402 8 99.601161114412 5.4450278282166 251.48670959473 82 1 delete
10:24:59 60.372086 29.560864 8 102.98183651496 4.9576225280762 296.94650268555 82 1 delete
10:24:56 60.371953 29.561290 8 102.97604103933 4.5684638023376 295.81518554688 82 1 delete
10:24:53 60.371865 29.561510 8 102.32832370466 4.6120929718018 326.67645263672 82 1 delete
10:24:50 60.371723 29.561619 12 101.00265308087 4.5631737709045 328.78988647461 82 1 delete
10:24:47 60.371617 29.561796 6 101.3101021125 4.4637312889099 305.29598999023 82 1 delete
10:24:44 60.371550 29.562112 6 102.56883136572 4.1747608184814 286.50918579102 82 1 delete
10:24:41 60.371501 29.562389 8 103.27473901159 3.9334206581116 284.94534301758 82 1 delete
10:24:38 60.371452 29.562636 8 102.11360101819 3.7562868595123 298.30355834961 82 1 delete
10:24:35 60.371407 29.562802 8 99.991790710131 3.7593100070953 297.51773071289 82 1 delete
10:24:32 60.371355 29.563038 6 99.910960101713 3.7514970302582 290.57629394531 82 1 delete
10:24:29 60.371299 29.563253 6 100.10499455813 3.6552941799164 286.75177001953 82 1 delete
10:24:26 60.371286 29.563516 6 101.09151704518 3.4635324478149 266.79327392578 82 1 delete
10:24:23 60.371287 29.563831 6 100.97228678257 3.3355400562286 264.86126708984 82 1 delete
10:24:20 60.371295 29.564107 6 100.86523154763 3.246967792511 258.17477416992 82 1 delete
10:24:17 60.371317 29.564365 6 100.55239705769 3.1567733287811 248.02610778809 82 1 delete
10:24:14 60.371352 29.564646 6 100.38195095625 2.9994425773621 267.09661865234 82 1 delete
10:24:11 60.371373 29.564890 6 100.31743855047 3.0658333301544 239.51918029785 82 1 delete
10:24:08 60.371397 29.565105 8 100.4163482838 3.1633362770081 233.40928649902 82 1 delete